Airfield :
LOGIN :

Register | Disclaimer

   EN    FR    IT 

 










Legend :    VFR   Marginal VFR   IFR   Intensive IFR   Very Intensive IFR
Visi :
Ceiling :
>= 8 km
>= 3000ft
5 to 8 km
1000 to 3000 ft
1500m to 5 km
500 to 1000 ft
800 to 1500m
200 to 500 ft
< 800m
< 200 ft
Symbols :   Thunderstorms  Fog  Heavy snow  Heavy precipitations  Wind > 20 kt
SIGMETs :     Misc.  Thunderstorms  Icing  Turbulence  Mountain Waves  Volcanic Ashes







- Airport Elevation : 202 ft
- IATA code : LGW
- Download approach charts


EGKK - London Gatwick

CURRENT METAR :
  • 131950Z 08004KT CAVOK M01/M03 Q1019

EXPIRED METARs :
  • 131920Z 08005KT CAVOK M01/M03 Q1019
  • 131850Z 07005KT CAVOK M00/M03 Q1018
  • 131820Z 07007KT CAVOK 00/M02 Q1018
  • 131750Z 07007KT 030V090 CAVOK 00/M02 Q1018
  • 131720Z 06006KT CAVOK 01/M03 Q1017

TAF TAF EGKK
Valid from the 13 at 18:00 until the 15 at 00:00 UTC


131659Z 1318/1424 08006KT 9999 FEW025
BECMG 1321/1324 6000
PROB30 1401/1407 4000 BR
BECMG 1407/1410 9999
No reported NOTAMs for that airfield.
1 SIGMET reported for the London FIR (EGTT) :
 
Severe turbulence
EGTT SIGMET 04 VALID 131900/132300 EGRR
EGTT LONDON FIR SEV TURB FCST W OF LINE N5212 W00544 - N4935 W00407 FL180/420 STNR NC=



MET'MAP, your aeronautical weather chart ! - Copyright ORBIFLY December 2007 - Disclaimer

ORBIFLY MET'MAP TEAM :

Programming & Development : Alexandra Zaïnal
Concept & Development : Baudouin d'Aumeries
Co-Development & Prog : Marc-Olivier Méhu
Technical & hardware support : Manuel Goepfert

Contact : metmap@orbifly.com




SOURCES & CREDITS :

   NOAA